Woolloomooloo — 9HA2901 — position and weather

sailwx.info

Track history (hours):
 
Tides and Currents Weather Stations Pressure Air Temp Water Temp Dewpoint Dewpoint Depression Visibility Wind Speed Wind Dir Waves Ship Positions

Woolloomooloo

Last reported at 2017-Sep-25 10:50 UTC. Time now 2017-Sep-26 11:11 UTC.
Position N 48°35' W 006°03'.

Length 224 m; draft 13.6 m.

Type: Cargo ship. MMSI: 256662000.

Date/timePositionNaut miles runAvg speedWind from/ knotsBaromVisibWave heightAir tempDewpointWater temp
2017-Sep-25 10:50N 48°35' W 006°03'511.8
2017-Sep-25 10:25N 48°39' W 005°59'611.5
2017-Sep-25 09:56N 48°44' W 005°55'711.2
2017-Sep-25 09:19N 48°50' W 005°50'310.2
2017-Sep-25 09:00N 48°53' W 005°48'6 9.0
2017-Sep-25 08:18N 48°56' W 005°39'3 9.0
2017-Sep-25 08:00N 48°58' W 005°36'4 8.7
2017-Sep-25 07:29N 49°00' W 005°30'4 8.6
2017-Sep-25 07:00N 49°02' W 005°25'4 8.8
2017-Sep-25 06:30N 49°05' W 005°19'4 8.3
2017-Sep-25 06:00N 49°07' W 005°14'4 8.4
2017-Sep-25 05:29N 49°09' W 005°08'4 8.5
2017-Sep-25 05:00N 49°11' W 005°02'5 9.0
2017-Sep-25 04:30N 49°13' W 004°56'5 9.8
2017-Sep-25 04:00N 49°16' W 004°50'510.0
2017-Sep-25 03:30N 49°18' W 004°43'510.5
2017-Sep-25 03:00N 49°21' W 004°36'611.0
2017-Sep-25 02:28N 49°24' W 004°29'511.4
2017-Sep-25 01:59N 49°27' W 004°21'711.4
2017-Sep-25 01:24N 49°30' W 004°12'611.5
2017-Sep-25 00:54N 49°33' W 004°05'511.3
2017-Sep-25 00:29N 49°35' W 003°58'611.0
2017-Sep-24 23:57N 49°39' W 003°51'510.6
2017-Sep-24 23:30N 49°41' W 003°44'510.1
2017-Sep-24 23:00N 49°43' W 003°38'5 9.5
2017-Sep-24 22:30N 49°45' W 003°31'5 9.1
2017-Sep-24 22:00N 49°48' W 003°25'4 8.7
2017-Sep-24 21:30N 49°50' W 003°20'4 8.5
2017-Sep-24 21:00N 49°52' W 003°14'4 8.4
2017-Sep-24 20:30N 49°54' W 003°08'4 8.7
2017-Sep-24 20:00N 49°56' W 003°02'4 8.5
2017-Sep-24 19:30N 49°59' W 002°57'5 9.4
2017-Sep-24 19:00N 49°60' W 002°49'510.1
2017-Sep-24 18:30N 50°01' W 002°42'611.2
2017-Sep-24 18:00N 50°03' W 002°33'4614.1
2017-Sep-24 14:43N 50°15' W 001°24'913.3
2017-Sep-24 14:03N 50°17' W 001°10'112.8
2017-Sep-24 13:57N 50°17' W 001°08'1511.1
2017-Sep-24 12:36N 50°22' W 000°46'1 9.6
2017-Sep-24 12:29N 50°22' W 000°44'8 9.4
2017-Sep-24 11:39N 50°24' W 000°32'2 9.1
2017-Sep-24 11:29N 50°24' W 000°30'4 9.1
2017-Sep-24 11:00N 50°25' W 000°23'5 9.5
2017-Sep-24 10:30N 50°26' W 000°16'510.0
2017-Sep-24 10:00N 50°27' W 000°08'510.4
2017-Sep-24 09:31N 50°29' W 000°01'611.0
2017-Sep-24 09:00N 50°30' E 000°08'611.6
2017-Sep-24 08:30N 50°32' E 000°17'612.3
2017-Sep-24 08:00N 50°33' E 000°26'612.8
2017-Sep-24 07:30N 50°36' E 000°35'613.0
2017-Sep-24 07:00N 50°39' E 000°44'612.9
2017-Sep-24 06:30N 50°43' E 000°52'712.7
2017-Sep-24 05:59N 50°47' E 001°00'612.2
2017-Sep-24 05:29N 50°50' E 001°08'611.8
2017-Sep-24 05:00N 50°54' E 001°16'611.1
2017-Sep-24 04:30N 50°58' E 001°22'510.4
2017-Sep-24 04:00N 51°02' E 001°27'5 9.4
2017-Sep-24 03:30N 51°05' E 001°32'4 8.6
2017-Sep-24 03:00N 51°08' E 001°37'4 8.7
2017-Sep-24 02:30N 51°11' E 001°42'5 9.1
2017-Sep-24 02:00N 51°15' E 001°46'5 9.9
2017-Sep-24 01:30N 51°19' E 001°50'511.0
2017-Sep-24 01:00N 51°24' E 001°54'611.8
2017-Sep-24 00:30N 51°29' E 002°00'612.7
2017-Sep-24 00:00N 51°33' E 002°07'713.2
2017-Sep-23 23:30N 51°38' E 002°14'713.8
2017-Sep-23 22:59N 51°44' E 002°22'713.9
2017-Sep-23 22:29N 51°49' E 002°29'713.8
2017-Sep-23 22:00N 51°55' E 002°34'713.7
2017-Sep-23 21:30N 52°01' E 002°38'2412.6
2017-Sep-23 19:35N 52°23' E 002°53'42110.1
2017-Sep-22 02:00N 57°23' E 011°29'611.9
2017-Sep-22 01:30N 57°17' E 011°33'811.9
2017-Sep-22 00:52N 57°10' E 011°38'412.0
2017-Sep-22 00:30N 57°06' E 011°40'611.9
2017-Sep-22 00:00N 57°00' E 011°44'611.7
2017-Sep-21 23:29N 56°55' E 011°48'811.4
2017-Sep-21 22:45N 56°47' E 011°53'410.8
2017-Sep-21 22:22N 56°43' E 011°52'511.3
2017-Sep-21 21:53N 56°38' E 011°46'1111.1
2017-Sep-21 20:52N 56°28' E 011°36'511.2
2017-Sep-21 20:24N 56°24' E 011°31'511.1
2017-Sep-21 19:59N 56°20' E 011°26'511.1
2017-Sep-21 19:29N 56°15' E 011°21'3910.9
2017-Sep-21 15:55N 55°41' E 010°48'1811.9
2017-Sep-21 14:25N 55°25' E 010°59'511.3
2017-Sep-21 14:00N 55°20' E 011°02'611.6
2017-Sep-21 13:30N 55°15' E 011°05'5 9.9
2017-Sep-21 13:00N 55°10' E 011°02'611.2
2017-Sep-21 12:30N 55°05' E 010°59'611.4
2017-Sep-21 12:00N 54°59' E 010°59'611.5
2017-Sep-21 11:30N 54°55' E 010°52'612.3
2017-Sep-21 11:00N 54°49' E 010°50'612.0
2017-Sep-21 10:30N 54°43' E 010°47'5 9.9
2017-Sep-21 10:00N 54°39' E 010°52'611.8
2017-Sep-21 09:30N 54°36' E 011°01'612.1
2017-Sep-21 09:00N 54°36' E 011°11'612.1
2017-Sep-21 08:30N 54°33' E 011°20'611.9
2017-Sep-21 08:00N 54°31' E 011°30'611.5
2017-Sep-21 07:30N 54°28' E 011°39'611.4
2017-Sep-21 07:00N 54°26' E 011°48'611.6
2017-Sep-21 06:30N 54°26' E 011°58'611.5
2017-Sep-21 06:00N 54°26' E 012°08'510.6
2017-Sep-21 05:30N 54°30' E 012°13'611.5
2017-Sep-21 05:00N 54°36' E 012°17'611.2
2017-Sep-21 04:30N 54°39' E 012°25'611.5
2017-Sep-21 04:00N 54°42' E 012°33'5 9.7
2017-Sep-21 03:30N 54°45' E 012°40'4 7.7
2017-Sep-21 03:00N 54°47' E 012°46'710.7
2017-Sep-21 02:21N 54°50' E 012°57'512.0
2017-Sep-21 01:57N 54°52' E 013°04'1112.1
2017-Sep-21 01:03N 54°56' E 013°22'011.8
2017-Sep-21 01:00N 54°56' E 013°23'811.9
2017-Sep-21 00:19N 54°58' E 013°37'411.9
2017-Sep-21 00:00N 54°59' E 013°43'1011.9
2017-Sep-20 23:07N 55°03' E 014°00'211.9
2017-Sep-20 22:59N 55°03' E 014°03'911.7
2017-Sep-20 22:15N 55°10' E 014°13'312.2
2017-Sep-20 22:00N 55°12' E 014°16'612.3
2017-Sep-20 21:30N 55°17' E 014°23'612.4
2017-Sep-20 21:00N 55°22' E 014°30'612.1
2017-Sep-20 20:30N 55°26' E 014°37'612.3
2017-Sep-20 20:00N 55°29' E 014°47'612.2
2017-Sep-20 19:30N 55°31' E 014°56'612.1
2017-Sep-20 19:00N 55°34' E 015°06'612.2
2017-Sep-20 18:30N 55°36' E 015°16'612.2
2017-Sep-20 18:00N 55°39' E 015°26'612.3
2017-Sep-20 17:30N 55°40' E 015°36'612.4
2017-Sep-20 17:00N 55°42' E 015°47'612.4
2017-Sep-20 16:30N 55°43' E 015°58'612.1
2017-Sep-20 16:00N 55°45' E 016°08'611.9
2017-Sep-20 15:30N 55°46' E 016°18'611.8
2017-Sep-20 15:00N 55°48' E 016°28'1211.6
2017-Sep-20 14:00N 55°51' E 016°49'611.8
2017-Sep-20 13:29N 55°52' E 016°59'29211.5
2017-Sep-19 11:59N 59°34' E 022°56'612.5
2017-Sep-19 11:30N 59°35' E 023°08'612.5
2017-Sep-19 11:00N 59°37' E 023°19'612.2
2017-Sep-19 10:30N 59°39' E 023°31'612.1
2017-Sep-19 10:00N 59°41' E 023°42'612.0
2017-Sep-19 09:30N 59°42' E 023°54'612.2
2017-Sep-19 09:00N 59°44' E 024°06'612.2
2017-Sep-19 08:29N 59°45' E 024°18'611.8
2017-Sep-19 08:00N 59°47' E 024°29'612.0
2017-Sep-19 07:30N 59°48' E 024°40'612.0
2017-Sep-19 07:00N 59°49' E 024°52'4111.9
2017-Sep-19 03:33N 59°58' E 026°12'011.9
2017-Sep-19 03:30N 59°58' E 026°13'611.9
2017-Sep-19 03:00N 59°60' E 026°24'611.6
2017-Sep-19 02:31N 60°01' E 026°36'611.5
2017-Sep-19 02:00N 60°00' E 026°47'611.4
2017-Sep-19 01:30N 59°60' E 026°58'510.5
2017-Sep-19 01:00N 60°01' E 027°08'611.9
2017-Sep-19 00:30N 60°04' E 027°19'611.9
2017-Sep-19 00:01N 60°07' E 027°29'611.9
2017-Sep-18 23:30N 60°10' E 027°39'510.7
2017-Sep-18 23:00N 60°12' E 027°49'611.6
2017-Sep-18 22:30N 60°10' E 028°01'611.5
2017-Sep-18 22:00N 60°09' E 028°12'510.7
2017-Sep-18 21:31N 60°06' E 028°21'510.8
2017-Sep-18 21:00N 60°03' E 028°31'4 8.6
2017-Sep-18 20:30N 60°00' E 028°36'4 8.4
2017-Sep-18 20:01N 59°56' E 028°33'3 5.0
2017-Sep-18 19:30N 59°54' E 028°31'5 9.6
2017-Sep-18 19:00N 59°50' E 028°26'5 9.6
2017-Sep-18 18:30N 59°45' E 028°25'3 6.4
2017-Sep-18 18:00N 59°42' E 028°25'0 0.8
2017-Sep-18 17:28N 59°41' E 028°25'0 0.0
2017-Sep-18 16:58N 59°41' E 028°25'0 0.0
2017-Sep-18 16:28N 59°41' E 028°25'0 0.0
2017-Sep-18 15:49N 59°41' E 028°25'0 0.0
2017-Sep-18 15:25N 59°41' E 028°25'0 0.0
2017-Sep-18 14:58N 59°41' E 028°25'0 0.0
2017-Sep-18 14:25N 59°41' E 028°25'0 0.0
2017-Sep-18 13:58N 59°41' E 028°25'0 0.0
2017-Sep-18 13:28N 59°41' E 028°25'0 0.0
2017-Sep-18 12:52N 59°41' E 028°25'0 0.0
2017-Sep-18 12:22N 59°41' E 028°25'0 0.0
2017-Sep-18 11:58N 59°41' E 028°25'0 0.0
2017-Sep-18 11:28N 59°41' E 028°25'0 0.0
2017-Sep-18 10:55N 59°41' E 028°25'0 0.0
2017-Sep-18 10:22N 59°41' E 028°25'0 0.0
2017-Sep-18 09:58N 59°41' E 028°25'0 0.0
2017-Sep-18 09:28N 59°41' E 028°25'0 0.0
2017-Sep-18 08:58N 59°41' E 028°25'0 0.0
2017-Sep-18 08:28N 59°41' E 028°25'0 0.0
2017-Sep-18 07:58N 59°41' E 028°25'0 0.0
2017-Sep-18 07:28N 59°41' E 028°25'0 0.0
2017-Sep-18 06:58N 59°41' E 028°25'0 0.0
2017-Sep-18 06:28N 59°41' E 028°25'0 0.0
2017-Sep-18 05:58N 59°41' E 028°25'0 0.0
2017-Sep-18 05:28N 59°41' E 028°25'0 0.0
2017-Sep-18 04:58N 59°41' E 028°25'0 0.0
2017-Sep-18 04:28N 59°41' E 028°25'0 0.0
2017-Sep-18 03:58N 59°41' E 028°25'0 0.0
2017-Sep-18 03:28N 59°41' E 028°25'0 0.0
2017-Sep-18 02:58N 59°41' E 028°25'0 0.0
2017-Sep-18 02:28N 59°41' E 028°25'0 0.0
2017-Sep-18 01:58N 59°41' E 028°25'0 0.0
2017-Sep-18 01:25N 59°41' E 028°25'0 0.0
2017-Sep-18 00:52N 59°41' E 028°25'0 0.0
2017-Sep-18 00:25N 59°41' E 028°25'0 0.0
2017-Sep-17 23:58N 59°41' E 028°25'0 0.0
2017-Sep-17 23:22N 59°41' E 028°25'0 0.0
2017-Sep-17 22:58N 59°41' E 028°25'0 0.0
2017-Sep-17 22:28N 59°41' E 028°25'0 0.0
2017-Sep-17 21:58N 59°41' E 028°25'0 0.0
2017-Sep-17 21:25N 59°41' E 028°25'0 0.0
2017-Sep-17 20:58N 59°41' E 028°25'0 0.0
2017-Sep-17 20:28N 59°41' E 028°25'0 0.0
2017-Sep-17 19:58N 59°41' E 028°25'0 0.0
2017-Sep-17 19:28N 59°41' E 028°25'0 0.0
2017-Sep-17 18:58N 59°41' E 028°25'0 0.0
2017-Sep-17 18:28N 59°41' E 028°25'0 0.0
2017-Sep-17 17:58N 59°41' E 028°25'0 0.0
2017-Sep-17 17:28N 59°41' E 028°25'0 0.0
2017-Sep-17 16:58N 59°41' E 028°25'0 0.0
2017-Sep-17 16:28N 59°41' E 028°25'0 0.0
2017-Sep-17 15:58N 59°41' E 028°25'0 0.0
2017-Sep-17 15:28N 59°41' E 028°25'0 0.0
2017-Sep-17 14:58N 59°41' E 028°25'0 0.0
2017-Sep-17 14:28N 59°41' E 028°25'0 0.0
2017-Sep-17 13:58N 59°41' E 028°25'0 0.0
2017-Sep-17 13:28N 59°41' E 028°25'0 0.0
2017-Sep-17 12:58N 59°41' E 028°25'0 0.0
2017-Sep-17 12:25N 59°41' E 028°25'0 0.0
2017-Sep-17 11:58N 59°41' E 028°25'0 0.0
2017-Sep-17 11:28N 59°41' E 028°25'0 0.0
2017-Sep-17 10:52N 59°41' E 028°25'0 0.0
2017-Sep-17 10:22N 59°41' E 028°25'0 0.0
2017-Sep-17 09:58N 59°41' E 028°25'0 0.0
2017-Sep-17 09:28N 59°41' E 028°25'0 0.0
2017-Sep-17 08:55N 59°41' E 028°25'0 0.0
2017-Sep-17 08:22N 59°41' E 028°25'0 0.0
2017-Sep-17 07:58N 59°41' E 028°25'0 0.0
2017-Sep-17 07:28N 59°41' E 028°25'0 0.0
2017-Sep-17 06:52N 59°41' E 028°25'0 0.0
2017-Sep-17 06:25N 59°41' E 028°25'0 0.0
2017-Sep-17 05:55N 59°41' E 028°25'0 0.0
2017-Sep-17 05:28N 59°41' E 028°25'0 0.0
2017-Sep-17 04:58N 59°41' E 028°25'0 0.0
2017-Sep-17 04:28N 59°41' E 028°25'0 0.0
2017-Sep-17 03:58N 59°41' E 028°25'0 0.0
2017-Sep-17 03:28N 59°41' E 028°25'0 0.0
2017-Sep-17 02:58N 59°41' E 028°25'0 0.0
2017-Sep-17 02:28N 59°41' E 028°25'0 0.0
2017-Sep-17 01:58N 59°41' E 028°25'0 0.0
2017-Sep-17 01:28N 59°41' E 028°25'0 0.0
2017-Sep-17 00:55N 59°41' E 028°25'0 0.0
2017-Sep-17 00:28N 59°41' E 028°25'0 0.0
2017-Sep-16 23:58N 59°41' E 028°25'0 0.0
2017-Sep-16 23:28N 59°41' E 028°25'0 0.0
2017-Sep-16 22:58N 59°41' E 028°25'0 0.0
2017-Sep-16 22:28N 59°41' E 028°25'0 0.0
2017-Sep-16 21:58N 59°41' E 028°25'0 0.0
2017-Sep-16 21:28N 59°41' E 028°25'0 0.0
2017-Sep-16 20:58N 59°41' E 028°25'0 0.0
2017-Sep-16 20:25N 59°41' E 028°25'0 0.0
2017-Sep-16 19:53N 59°41' E 028°25'0 0.0
2017-Sep-16 19:30N 59°41' E 028°25'0 0.2
2017-Sep-16 19:01N 59°41' E 028°25'2 3.5
2017-Sep-16 18:30N 59°43' E 028°24'2 4.5
2017-Sep-16 18:01N 59°45' E 028°24'1 2.2
2017-Sep-16 17:30N 59°46' E 028°24'2 3.0
2017-Sep-16 17:00N 59°48' E 028°25'2 3.1
2017-Sep-16 16:30N 59°49' E 028°25'2 4.0
2017-Sep-16 16:00N 59°51' E 028°27'2 4.1
2017-Sep-16 15:31N 59°53' E 028°29'2 3.5
2017-Sep-16 15:00N 59°54' E 028°31'2 3.6
2017-Sep-16 14:31N 59°54' E 028°35'2 3.6
2017-Sep-16 13:58N 59°56' E 028°38'0 0.1
2017-Sep-16 13:28N 59°56' E 028°38'0 0.0
2017-Sep-16 12:58N 59°56' E 028°38'0 0.1
2017-Sep-16 12:28N 59°56' E 028°38'0 0.0
2017-Sep-16 11:58N 59°56' E 028°38'0 0.0
2017-Sep-16 11:28N 59°56' E 028°38'0 0.0
2017-Sep-16 10:58N 59°56' E 028°38'0 0.0
2017-Sep-16 10:28N 59°56' E 028°38'0 0.0
2017-Sep-16 09:58N 59°56' E 028°38'0 0.1
2017-Sep-16 09:28N 59°56' E 028°38'0 0.1
2017-Sep-16 08:58N 59°56' E 028°38'0 0.0
2017-Sep-16 08:28N 59°56' E 028°38'0 0.0
2017-Sep-16 07:59N 59°56' E 028°38'0 0.0
2017-Sep-16 07:28N 59°56' E 028°38'0 0.0
2017-Sep-16 06:58N 59°56' E 028°38'0 0.0
2017-Sep-16 06:28N 59°56' E 028°38'0 0.0
2017-Sep-16 05:58N 59°56' E 028°38'0 0.0
2017-Sep-16 05:25N 59°56' E 028°38'0 0.0
2017-Sep-16 04:58N 59°56' E 028°38'0 0.0
2017-Sep-16 04:28N 59°56' E 028°38'0 0.0
2017-Sep-16 03:55N 59°56' E 028°38'0 0.0
2017-Sep-16 03:28N 59°56' E 028°38'0 0.0
2017-Sep-16 02:58N 59°56' E 028°38'0 0.0
2017-Sep-16 02:28N 59°56' E 028°38'0 0.1
2017-Sep-16 01:58N 59°56' E 028°38'0 0.0
2017-Sep-16 01:25N 59°56' E 028°38'0 0.0
2017-Sep-16 00:58N 59°56' E 028°38'0 0.0
2017-Sep-16 00:28N 59°56' E 028°38'0 0.0
2017-Sep-15 23:58N 59°56' E 028°38'0 0.1
2017-Sep-15 23:28N 59°56' E 028°38'0 0.0
2017-Sep-15 22:58N 59°56' E 028°38'0 0.0
2017-Sep-15 22:28N 59°56' E 028°38'0 0.0
2017-Sep-15 21:58N 59°56' E 028°38'0 0.0
2017-Sep-15 21:28N 59°56' E 028°38'0 0.1
2017-Sep-15 20:58N 59°56' E 028°38'0 0.0
2017-Sep-15 20:28N 59°56' E 028°38'0 0.1
2017-Sep-15 19:58N 59°56' E 028°38'0 0.4
2017-Sep-15 19:30N 59°56' E 028°37'0 0.2
2017-Sep-15 19:00N 59°56' E 028°37'3 6.5
2017-Sep-15 18:30N 59°59' E 028°35'5 9.7
2017-Sep-15 18:00N 60°03' E 028°29'713.2
2017-Sep-15 17:30N 60°06' E 028°18'713.5
2017-Sep-15 17:00N 60°09' E 028°05'713.8
2017-Sep-15 16:31N 60°10' E 027°52'612.8
2017-Sep-15 16:00N 60°09' E 027°39'713.7
2017-Sep-15 15:31N 60°05' E 027°28'713.6
2017-Sep-15 15:01N 60°02' E 027°16'713.8
2017-Sep-15 14:30N 59°58' E 027°04'713.6
2017-Sep-15 14:00N 59°59' E 026°51'713.8
2017-Sep-15 13:31N 59°60' E 026°37'713.9
2017-Sep-15 13:01N 59°58' E 026°24'  
Track history (hours):
 
Tides and Currents Weather Stations Pressure Air Temp Water Temp Dewpoint Dewpoint Depression Visibility Wind Speed Wind Dir Waves Ship Positions

Woolloomooloo

Last reported at 2017-Sep-25 10:50 UTC. Time now 2017-Sep-26 11:11 UTC.
Position N 48°35' W 006°03'.

Length 224 m; draft 13.6 m.

Type: Cargo ship. MMSI: 256662000.

Date/timePositionNaut miles runAvg speedWind from/ knotsBaromVisibWave heightAir tempDewpointWater temp
2017-Sep-25 10:50N 48°35' W 006°03'511.8
2017-Sep-25 10:25N 48°39' W 005°59'611.5
2017-Sep-25 09:56N 48°44' W 005°55'711.2
2017-Sep-25 09:19N 48°50' W 005°50'310.2
2017-Sep-25 09:00N 48°53' W 005°48'6 9.0
2017-Sep-25 08:18N 48°56' W 005°39'3 9.0
2017-Sep-25 08:00N 48°58' W 005°36'4 8.7
2017-Sep-25 07:29N 49°00' W 005°30'4 8.6
2017-Sep-25 07:00N 49°02' W 005°25'4 8.8
2017-Sep-25 06:30N 49°05' W 005°19'4 8.3
2017-Sep-25 06:00N 49°07' W 005°14'4 8.4
2017-Sep-25 05:29N 49°09' W 005°08'4 8.5
2017-Sep-25 05:00N 49°11' W 005°02'5 9.0
2017-Sep-25 04:30N 49°13' W 004°56'5 9.8
2017-Sep-25 04:00N 49°16' W 004°50'510.0
2017-Sep-25 03:30N 49°18' W 004°43'510.5
2017-Sep-25 03:00N 49°21' W 004°36'611.0
2017-Sep-25 02:28N 49°24' W 004°29'511.4
2017-Sep-25 01:59N 49°27' W 004°21'711.4
2017-Sep-25 01:24N 49°30' W 004°12'611.5
2017-Sep-25 00:54N 49°33' W 004°05'511.3
2017-Sep-25 00:29N 49°35' W 003°58'611.0
2017-Sep-24 23:57N 49°39' W 003°51'510.6
2017-Sep-24 23:30N 49°41' W 003°44'510.1
2017-Sep-24 23:00N 49°43' W 003°38'5 9.5
2017-Sep-24 22:30N 49°45' W 003°31'5 9.1
2017-Sep-24 22:00N 49°48' W 003°25'4 8.7
2017-Sep-24 21:30N 49°50' W 003°20'4 8.5
2017-Sep-24 21:00N 49°52' W 003°14'4 8.4
2017-Sep-24 20:30N 49°54' W 003°08'4 8.7
2017-Sep-24 20:00N 49°56' W 003°02'4 8.5
2017-Sep-24 19:30N 49°59' W 002°57'5 9.4
2017-Sep-24 19:00N 49°60' W 002°49'510.1
2017-Sep-24 18:30N 50°01' W 002°42'611.2
2017-Sep-24 18:00N 50°03' W 002°33'4614.1
2017-Sep-24 14:43N 50°15' W 001°24'913.3
2017-Sep-24 14:03N 50°17' W 001°10'112.8
2017-Sep-24 13:57N 50°17' W 001°08'1511.1
2017-Sep-24 12:36N 50°22' W 000°46'1 9.6
2017-Sep-24 12:29N 50°22' W 000°44'8 9.4
2017-Sep-24 11:39N 50°24' W 000°32'2 9.1
2017-Sep-24 11:29N 50°24' W 000°30'4 9.1
2017-Sep-24 11:00N 50°25' W 000°23'5 9.5
2017-Sep-24 10:30N 50°26' W 000°16'510.0
2017-Sep-24 10:00N 50°27' W 000°08'510.4
2017-Sep-24 09:31N 50°29' W 000°01'611.0
2017-Sep-24 09:00N 50°30' E 000°08'611.6
2017-Sep-24 08:30N 50°32' E 000°17'612.3
2017-Sep-24 08:00N 50°33' E 000°26'612.8
2017-Sep-24 07:30N 50°36' E 000°35'613.0
2017-Sep-24 07:00N 50°39' E 000°44'612.9
2017-Sep-24 06:30N 50°43' E 000°52'712.7
2017-Sep-24 05:59N 50°47' E 001°00'612.2
2017-Sep-24 05:29N 50°50' E 001°08'611.8
2017-Sep-24 05:00N 50°54' E 001°16'611.1
2017-Sep-24 04:30N 50°58' E 001°22'510.4
2017-Sep-24 04:00N 51°02' E 001°27'5 9.4
2017-Sep-24 03:30N 51°05' E 001°32'4 8.6
2017-Sep-24 03:00N 51°08' E 001°37'4 8.7
2017-Sep-24 02:30N 51°11' E 001°42'5 9.1
2017-Sep-24 02:00N 51°15' E 001°46'5 9.9
2017-Sep-24 01:30N 51°19' E 001°50'511.0
2017-Sep-24 01:00N 51°24' E 001°54'611.8
2017-Sep-24 00:30N 51°29' E 002°00'612.7
2017-Sep-24 00:00N 51°33' E 002°07'713.2
2017-Sep-23 23:30N 51°38' E 002°14'713.8
2017-Sep-23 22:59N 51°44' E 002°22'713.9
2017-Sep-23 22:29N 51°49' E 002°29'713.8
2017-Sep-23 22:00N 51°55' E 002°34'713.7
2017-Sep-23 21:30N 52°01' E 002°38'2412.6
2017-Sep-23 19:35N 52°23' E 002°53'42110.1
2017-Sep-22 02:00N 57°23' E 011°29'611.9
2017-Sep-22 01:30N 57°17' E 011°33'811.9
2017-Sep-22 00:52N 57°10' E 011°38'412.0
2017-Sep-22 00:30N 57°06' E 011°40'611.9
2017-Sep-22 00:00N 57°00' E 011°44'611.7
2017-Sep-21 23:29N 56°55' E 011°48'811.4
2017-Sep-21 22:45N 56°47' E 011°53'410.8
2017-Sep-21 22:22N 56°43' E 011°52'511.3
2017-Sep-21 21:53N 56°38' E 011°46'1111.1
2017-Sep-21 20:52N 56°28' E 011°36'511.2
2017-Sep-21 20:24N 56°24' E 011°31'511.1
2017-Sep-21 19:59N 56°20' E 011°26'511.1
2017-Sep-21 19:29N 56°15' E 011°21'3910.9
2017-Sep-21 15:55N 55°41' E 010°48'1811.9
2017-Sep-21 14:25N 55°25' E 010°59'511.3
2017-Sep-21 14:00N 55°20' E 011°02'611.6
2017-Sep-21 13:30N 55°15' E 011°05'5 9.9
2017-Sep-21 13:00N 55°10' E 011°02'611.2
2017-Sep-21 12:30N 55°05' E 010°59'611.4
2017-Sep-21 12:00N 54°59' E 010°59'611.5
2017-Sep-21 11:30N 54°55' E 010°52'612.3
2017-Sep-21 11:00N 54°49' E 010°50'612.0
2017-Sep-21 10:30N 54°43' E 010°47'5 9.9
2017-Sep-21 10:00N 54°39' E 010°52'611.8
2017-Sep-21 09:30N 54°36' E 011°01'612.1
2017-Sep-21 09:00N 54°36' E 011°11'612.1
2017-Sep-21 08:30N 54°33' E 011°20'611.9
2017-Sep-21 08:00N 54°31' E 011°30'611.5
2017-Sep-21 07:30N 54°28' E 011°39'611.4
2017-Sep-21 07:00N 54°26' E 011°48'611.6
2017-Sep-21 06:30N 54°26' E 011°58'611.5
2017-Sep-21 06:00N 54°26' E 012°08'510.6
2017-Sep-21 05:30N 54°30' E 012°13'611.5
2017-Sep-21 05:00N 54°36' E 012°17'611.2
2017-Sep-21 04:30N 54°39' E 012°25'611.5
2017-Sep-21 04:00N 54°42' E 012°33'5 9.7
2017-Sep-21 03:30N 54°45' E 012°40'4 7.7
2017-Sep-21 03:00N 54°47' E 012°46'710.7
2017-Sep-21 02:21N 54°50' E 012°57'512.0
2017-Sep-21 01:57N 54°52' E 013°04'1112.1
2017-Sep-21 01:03N 54°56' E 013°22'011.8
2017-Sep-21 01:00N 54°56' E 013°23'811.9
2017-Sep-21 00:19N 54°58' E 013°37'411.9
2017-Sep-21 00:00N 54°59' E 013°43'1011.9
2017-Sep-20 23:07N 55°03' E 014°00'211.9
2017-Sep-20 22:59N 55°03' E 014°03'911.7
2017-Sep-20 22:15N 55°10' E 014°13'312.2
2017-Sep-20 22:00N 55°12' E 014°16'612.3
2017-Sep-20 21:30N 55°17' E 014°23'612.4
2017-Sep-20 21:00N 55°22' E 014°30'612.1
2017-Sep-20 20:30N 55°26' E 014°37'612.3
2017-Sep-20 20:00N 55°29' E 014°47'612.2
2017-Sep-20 19:30N 55°31' E 014°56'612.1
2017-Sep-20 19:00N 55°34' E 015°06'612.2
2017-Sep-20 18:30N 55°36' E 015°16'612.2
2017-Sep-20 18:00N 55°39' E 015°26'612.3
2017-Sep-20 17:30N 55°40' E 015°36'612.4
2017-Sep-20 17:00N 55°42' E 015°47'612.4
2017-Sep-20 16:30N 55°43' E 015°58'612.1
2017-Sep-20 16:00N 55°45' E 016°08'611.9
2017-Sep-20 15:30N 55°46' E 016°18'611.8
2017-Sep-20 15:00N 55°48' E 016°28'1211.6
2017-Sep-20 14:00N 55°51' E 016°49'611.8
2017-Sep-20 13:29N 55°52' E 016°59'29211.5
2017-Sep-19 11:59N 59°34' E 022°56'612.5
2017-Sep-19 11:30N 59°35' E 023°08'612.5
2017-Sep-19 11:00N 59°37' E 023°19'612.2
2017-Sep-19 10:30N 59°39' E 023°31'612.1
2017-Sep-19 10:00N 59°41' E 023°42'612.0
2017-Sep-19 09:30N 59°42' E 023°54'612.2
2017-Sep-19 09:00N 59°44' E 024°06'612.2
2017-Sep-19 08:29N 59°45' E 024°18'611.8
2017-Sep-19 08:00N 59°47' E 024°29'612.0
2017-Sep-19 07:30N 59°48' E 024°40'612.0
2017-Sep-19 07:00N 59°49' E 024°52'4111.9
2017-Sep-19 03:33N 59°58' E 026°12'011.9
2017-Sep-19 03:30N 59°58' E 026°13'611.9
2017-Sep-19 03:00N 59°60' E 026°24'611.6
2017-Sep-19 02:31N 60°01' E 026°36'611.5
2017-Sep-19 02:00N 60°00' E 026°47'611.4
2017-Sep-19 01:30N 59°60' E 026°58'510.5
2017-Sep-19 01:00N 60°01' E 027°08'611.9
2017-Sep-19 00:30N 60°04' E 027°19'611.9
2017-Sep-19 00:01N 60°07' E 027°29'611.9
2017-Sep-18 23:30N 60°10' E 027°39'510.7
2017-Sep-18 23:00N 60°12' E 027°49'611.6
2017-Sep-18 22:30N 60°10' E 028°01'611.5
2017-Sep-18 22:00N 60°09' E 028°12'510.7
2017-Sep-18 21:31N 60°06' E 028°21'510.8
2017-Sep-18 21:00N 60°03' E 028°31'4 8.6
2017-Sep-18 20:30N 60°00' E 028°36'4 8.4
2017-Sep-18 20:01N 59°56' E 028°33'3 5.0
2017-Sep-18 19:30N 59°54' E 028°31'5 9.6
2017-Sep-18 19:00N 59°50' E 028°26'5 9.6
2017-Sep-18 18:30N 59°45' E 028°25'3 6.4
2017-Sep-18 18:00N 59°42' E 028°25'0 0.8
2017-Sep-18 17:28N 59°41' E 028°25'0 0.0
2017-Sep-18 16:58N 59°41' E 028°25'0 0.0
2017-Sep-18 16:28N 59°41' E 028°25'0 0.0
2017-Sep-18 15:49N 59°41' E 028°25'0 0.0
2017-Sep-18 15:25N 59°41' E 028°25'0 0.0
2017-Sep-18 14:58N 59°41' E 028°25'0 0.0
2017-Sep-18 14:25N 59°41' E 028°25'0 0.0
2017-Sep-18 13:58N 59°41' E 028°25'0 0.0
2017-Sep-18 13:28N 59°41' E 028°25'0 0.0
2017-Sep-18 12:52N 59°41' E 028°25'0 0.0
2017-Sep-18 12:22N 59°41' E 028°25'0 0.0
2017-Sep-18 11:58N 59°41' E 028°25'0 0.0
2017-Sep-18 11:28N 59°41' E 028°25'0 0.0
2017-Sep-18 10:55N 59°41' E 028°25'0 0.0
2017-Sep-18 10:22N 59°41' E 028°25'0 0.0
2017-Sep-18 09:58N 59°41' E 028°25'0 0.0
2017-Sep-18 09:28N 59°41' E 028°25'0 0.0
2017-Sep-18 08:58N 59°41' E 028°25'0 0.0
2017-Sep-18 08:28N 59°41' E 028°25'0 0.0
2017-Sep-18 07:58N 59°41' E 028°25'0 0.0
2017-Sep-18 07:28N 59°41' E 028°25'0 0.0
2017-Sep-18 06:58N 59°41' E 028°25'0 0.0
2017-Sep-18 06:28N 59°41' E 028°25'0 0.0
2017-Sep-18 05:58N 59°41' E 028°25'0 0.0
2017-Sep-18 05:28N 59°41' E 028°25'0 0.0
2017-Sep-18 04:58N 59°41' E 028°25'0 0.0
2017-Sep-18 04:28N 59°41' E 028°25'0 0.0
2017-Sep-18 03:58N 59°41' E 028°25'0 0.0
2017-Sep-18 03:28N 59°41' E 028°25'0 0.0
2017-Sep-18 02:58N 59°41' E 028°25'0 0.0
2017-Sep-18 02:28N 59°41' E 028°25'0 0.0
2017-Sep-18 01:58N 59°41' E 028°25'0 0.0
2017-Sep-18 01:25N 59°41' E 028°25'0 0.0
2017-Sep-18 00:52N 59°41' E 028°25'0 0.0
2017-Sep-18 00:25N 59°41' E 028°25'0 0.0
2017-Sep-17 23:58N 59°41' E 028°25'0 0.0
2017-Sep-17 23:22N 59°41' E 028°25'0 0.0
2017-Sep-17 22:58N 59°41' E 028°25'0 0.0
2017-Sep-17 22:28N 59°41' E 028°25'0 0.0
2017-Sep-17 21:58N 59°41' E 028°25'0 0.0
2017-Sep-17 21:25N 59°41' E 028°25'0 0.0
2017-Sep-17 20:58N 59°41' E 028°25'0 0.0
2017-Sep-17 20:28N 59°41' E 028°25'0 0.0
2017-Sep-17 19:58N 59°41' E 028°25'0 0.0
2017-Sep-17 19:28N 59°41' E 028°25'0 0.0
2017-Sep-17 18:58N 59°41' E 028°25'0 0.0
2017-Sep-17 18:28N 59°41' E 028°25'0 0.0
2017-Sep-17 17:58N 59°41' E 028°25'0 0.0
2017-Sep-17 17:28N 59°41' E 028°25'0 0.0
2017-Sep-17 16:58N 59°41' E 028°25'0 0.0
2017-Sep-17 16:28N 59°41' E 028°25'0 0.0
2017-Sep-17 15:58N 59°41' E 028°25'0 0.0
2017-Sep-17 15:28N 59°41' E 028°25'0 0.0
2017-Sep-17 14:58N 59°41' E 028°25'0 0.0
2017-Sep-17 14:28N 59°41' E 028°25'0 0.0
2017-Sep-17 13:58N 59°41' E 028°25'0 0.0
2017-Sep-17 13:28N 59°41' E 028°25'0 0.0
2017-Sep-17 12:58N 59°41' E 028°25'0 0.0
2017-Sep-17 12:25N 59°41' E 028°25'0 0.0
2017-Sep-17 11:58N 59°41' E 028°25'0 0.0
2017-Sep-17 11:28N 59°41' E 028°25'0 0.0
2017-Sep-17 10:52N 59°41' E 028°25'0 0.0
2017-Sep-17 10:22N 59°41' E 028°25'0 0.0
2017-Sep-17 09:58N 59°41' E 028°25'0 0.0
2017-Sep-17 09:28N 59°41' E 028°25'0 0.0
2017-Sep-17 08:55N 59°41' E 028°25'0 0.0
2017-Sep-17 08:22N 59°41' E 028°25'0 0.0
2017-Sep-17 07:58N 59°41' E 028°25'0 0.0
2017-Sep-17 07:28N 59°41' E 028°25'0 0.0
2017-Sep-17 06:52N 59°41' E 028°25'0 0.0
2017-Sep-17 06:25N 59°41' E 028°25'0 0.0
2017-Sep-17 05:55N 59°41' E 028°25'0 0.0
2017-Sep-17 05:28N 59°41' E 028°25'0 0.0
2017-Sep-17 04:58N 59°41' E 028°25'0 0.0
2017-Sep-17 04:28N 59°41' E 028°25'0 0.0
2017-Sep-17 03:58N 59°41' E 028°25'0 0.0
2017-Sep-17 03:28N 59°41' E 028°25'0 0.0
2017-Sep-17 02:58N 59°41' E 028°25'0 0.0
2017-Sep-17 02:28N 59°41' E 028°25'0 0.0
2017-Sep-17 01:58N 59°41' E 028°25'0 0.0
2017-Sep-17 01:28N 59°41' E 028°25'0 0.0
2017-Sep-17 00:55N 59°41' E 028°25'0 0.0
2017-Sep-17 00:28N 59°41' E 028°25'0 0.0
2017-Sep-16 23:58N 59°41' E 028°25'0 0.0
2017-Sep-16 23:28N 59°41' E 028°25'0 0.0
2017-Sep-16 22:58N 59°41' E 028°25'0 0.0
2017-Sep-16 22:28N 59°41' E 028°25'0 0.0
2017-Sep-16 21:58N 59°41' E 028°25'0 0.0
2017-Sep-16 21:28N 59°41' E 028°25'0 0.0
2017-Sep-16 20:58N 59°41' E 028°25'0 0.0
2017-Sep-16 20:25N 59°41' E 028°25'0 0.0
2017-Sep-16 19:53N 59°41' E 028°25'0 0.0
2017-Sep-16 19:30N 59°41' E 028°25'0 0.2
2017-Sep-16 19:01N 59°41' E 028°25'2 3.5
2017-Sep-16 18:30N 59°43' E 028°24'2 4.5
2017-Sep-16 18:01N 59°45' E 028°24'1 2.2
2017-Sep-16 17:30N 59°46' E 028°24'2 3.0
2017-Sep-16 17:00N 59°48' E 028°25'2 3.1
2017-Sep-16 16:30N 59°49' E 028°25'2 4.0
2017-Sep-16 16:00N 59°51' E 028°27'2 4.1
2017-Sep-16 15:31N 59°53' E 028°29'2 3.5
2017-Sep-16 15:00N 59°54' E 028°31'2 3.6
2017-Sep-16 14:31N 59°54' E 028°35'2 3.6
2017-Sep-16 13:58N 59°56' E 028°38'0 0.1
2017-Sep-16 13:28N 59°56' E 028°38'0 0.0
2017-Sep-16 12:58N 59°56' E 028°38'0 0.1
2017-Sep-16 12:28N 59°56' E 028°38'0 0.0
2017-Sep-16 11:58N 59°56' E 028°38'0 0.0
2017-Sep-16 11:28N 59°56' E 028°38'0 0.0
2017-Sep-16 10:58N 59°56' E 028°38'0 0.0
2017-Sep-16 10:28N 59°56' E 028°38'0 0.0
2017-Sep-16 09:58N 59°56' E 028°38'0 0.1
2017-Sep-16 09:28N 59°56' E 028°38'0 0.1
2017-Sep-16 08:58N 59°56' E 028°38'0 0.0
2017-Sep-16 08:28N 59°56' E 028°38'0 0.0
2017-Sep-16 07:59N 59°56' E 028°38'0 0.0
2017-Sep-16 07:28N 59°56' E 028°38'0 0.0
2017-Sep-16 06:58N 59°56' E 028°38'0 0.0
2017-Sep-16 06:28N 59°56' E 028°38'0 0.0
2017-Sep-16 05:58N 59°56' E 028°38'0 0.0
2017-Sep-16 05:25N 59°56' E 028°38'0 0.0
2017-Sep-16 04:58N 59°56' E 028°38'0 0.0
2017-Sep-16 04:28N 59°56' E 028°38'0 0.0
2017-Sep-16 03:55N 59°56' E 028°38'0 0.0
2017-Sep-16 03:28N 59°56' E 028°38'0 0.0
2017-Sep-16 02:58N 59°56' E 028°38'0 0.0
2017-Sep-16 02:28N 59°56' E 028°38'0 0.1
2017-Sep-16 01:58N 59°56' E 028°38'0 0.0
2017-Sep-16 01:25N 59°56' E 028°38'0 0.0
2017-Sep-16 00:58N 59°56' E 028°38'0 0.0
2017-Sep-16 00:28N 59°56' E 028°38'0 0.0
2017-Sep-15 23:58N 59°56' E 028°38'0 0.1
2017-Sep-15 23:28N 59°56' E 028°38'0 0.0
2017-Sep-15 22:58N 59°56' E 028°38'0 0.0
2017-Sep-15 22:28N 59°56' E 028°38'0 0.0
2017-Sep-15 21:58N 59°56' E 028°38'0 0.0
2017-Sep-15 21:28N 59°56' E 028°38'0 0.1
2017-Sep-15 20:58N 59°56' E 028°38'0 0.0
2017-Sep-15 20:28N 59°56' E 028°38'0 0.1
2017-Sep-15 19:58N 59°56' E 028°38'0 0.4
2017-Sep-15 19:30N 59°56' E 028°37'0 0.2
2017-Sep-15 19:00N 59°56' E 028°37'3 6.5
2017-Sep-15 18:30N 59°59' E 028°35'5 9.7
2017-Sep-15 18:00N 60°03' E 028°29'713.2
2017-Sep-15 17:30N 60°06' E 028°18'713.5
2017-Sep-15 17:00N 60°09' E 028°05'713.8
2017-Sep-15 16:31N 60°10' E 027°52'612.8
2017-Sep-15 16:00N 60°09' E 027°39'713.7
2017-Sep-15 15:31N 60°05' E 027°28'713.6
2017-Sep-15 15:01N 60°02' E 027°16'713.8
2017-Sep-15 14:30N 59°58' E 027°04'713.6
2017-Sep-15 14:00N 59°59' E 026°51'713.8
2017-Sep-15 13:31N 59°60' E 026°37'713.9
2017-Sep-15 13:01N 59°58' E 026°24'  

Dump ship's entire track history